V Centenario — EHXT — position and weather

sailwx.info

Track history (hours):
 
Tides and Currents Weather Stations Pressure Air Temp Water Temp Dewpoint Dewpoint Depression Visibility Wind Speed Wind Dir Waves Ship Positions

V Centenario

Last reported at 2018-Feb-09 22:26 UTC. Time now 2018-Feb-25 11:38 UTC.
Position N 34°17' W 009°04'.
Warning: this ship's position is 15 days out of date.

Length 84 m; draft 4.7 m.

Type: Cargo ship. MMSI: 224739000.

Date/timePositionNaut miles runAvg speedWind from/ knotsBaromVisibWave heightAir tempDewpointWater temp
2018-Feb-09 22:26N 34°17' W 009°04'2010.4
2018-Feb-09 20:30N 34°00' W 009°17'  
2018-Feb-01 22:48N 10°45' W 017°32'60 8.6
2018-Feb-01 15:51N 09°48' W 017°12'3 8.6
2018-Feb-01 15:30N 09°46' W 017°10'32 8.7
2018-Feb-01 11:47N 09°20' W 016°50'7 9.3
2018-Feb-01 11:00N 09°14' W 016°46'5 9.2
2018-Feb-01 10:30N 09°10' W 016°43'5 9.2
2018-Feb-01 09:59N 09°06' W 016°41'5 9.3
2018-Feb-01 09:26N 09°02' W 016°38'5 9.3
2018-Feb-01 08:55N 08°58' W 016°35'14 9.6
2018-Feb-01 07:29N 08°49' W 016°25'5 9.6
2018-Feb-01 07:00N 08°45' W 016°21'5 9.4
2018-Feb-01 06:30N 08°42' W 016°18'5 9.4
2018-Feb-01 05:59N 08°39' W 016°14'40 9.6
2018-Feb-01 01:53N 08°12' W 015°45'4 9.7
2018-Feb-01 01:29N 08°10' W 015°42'4 9.4
2018-Feb-01 01:00N 08°07' W 015°38'5 9.4
2018-Feb-01 00:30N 08°03' W 015°35'5 9.5
2018-Feb-01 00:00N 08°00' W 015°31'10 9.6
2018-Jan-31 23:00N 07°53' W 015°24'5 9.3
2018-Jan-31 22:30N 07°50' W 015°21'15 9.6
2018-Jan-31 20:59N 07°41' W 015°10'5 9.7
2018-Jan-31 20:27N 07°38' W 015°06'80 9.9
2018-Jan-31 12:22N 06°48' W 014°02'410.0
2018-Jan-31 12:00N 06°46' W 013°60'510.2
2018-Jan-31 11:30N 06°42' W 013°56'510.1
2018-Jan-31 11:00N 06°39' W 013°52'  
Track history (hours):
 
Tides and Currents Weather Stations Pressure Air Temp Water Temp Dewpoint Dewpoint Depression Visibility Wind Speed Wind Dir Waves Ship Positions

V Centenario

Last reported at 2018-Feb-09 22:26 UTC. Time now 2018-Feb-25 11:38 UTC.
Position N 34°17' W 009°04'.
Warning: this ship's position is 15 days out of date.

Length 84 m; draft 4.7 m.

Type: Cargo ship. MMSI: 224739000.

Date/timePositionNaut miles runAvg speedWind from/ knotsBaromVisibWave heightAir tempDewpointWater temp
2018-Feb-09 22:26N 34°17' W 009°04'2010.4
2018-Feb-09 20:30N 34°00' W 009°17'  
2018-Feb-01 22:48N 10°45' W 017°32'60 8.6
2018-Feb-01 15:51N 09°48' W 017°12'3 8.6
2018-Feb-01 15:30N 09°46' W 017°10'32 8.7
2018-Feb-01 11:47N 09°20' W 016°50'7 9.3
2018-Feb-01 11:00N 09°14' W 016°46'5 9.2
2018-Feb-01 10:30N 09°10' W 016°43'5 9.2
2018-Feb-01 09:59N 09°06' W 016°41'5 9.3
2018-Feb-01 09:26N 09°02' W 016°38'5 9.3
2018-Feb-01 08:55N 08°58' W 016°35'14 9.6
2018-Feb-01 07:29N 08°49' W 016°25'5 9.6
2018-Feb-01 07:00N 08°45' W 016°21'5 9.4
2018-Feb-01 06:30N 08°42' W 016°18'5 9.4
2018-Feb-01 05:59N 08°39' W 016°14'40 9.6
2018-Feb-01 01:53N 08°12' W 015°45'4 9.7
2018-Feb-01 01:29N 08°10' W 015°42'4 9.4
2018-Feb-01 01:00N 08°07' W 015°38'5 9.4
2018-Feb-01 00:30N 08°03' W 015°35'5 9.5
2018-Feb-01 00:00N 08°00' W 015°31'10 9.6
2018-Jan-31 23:00N 07°53' W 015°24'5 9.3
2018-Jan-31 22:30N 07°50' W 015°21'15 9.6
2018-Jan-31 20:59N 07°41' W 015°10'5 9.7
2018-Jan-31 20:27N 07°38' W 015°06'80 9.9
2018-Jan-31 12:22N 06°48' W 014°02'410.0
2018-Jan-31 12:00N 06°46' W 013°60'510.2
2018-Jan-31 11:30N 06°42' W 013°56'510.1
2018-Jan-31 11:00N 06°39' W 013°52'  

Dump ship's entire track history